createdAt,value
2023-02-14T00:01:30.048Z,102458.38
2023-02-14T00:04:01.617Z,102454.48
2023-02-14T00:06:35.371Z,102447.56
2023-02-14T00:09:06.520Z,102452.66
2023-02-14T00:11:37.176Z,102450.58
2023-02-14T00:14:26.135Z,102448.85
2023-02-14T00:16:56.817Z,102455.42
2023-02-14T00:19:27.397Z,102453.98
2023-02-14T00:21:58.175Z,102451.06
2023-02-14T00:24:31.654Z,102451.60
2023-02-14T00:27:02.611Z,102451.02
2023-02-14T00:29:36.812Z,102453.48
2023-02-14T00:32:09.707Z,102451.25
2023-02-14T00:34:44.391Z,102453.67
2023-02-14T00:37:15.087Z,102451.95
2023-02-14T00:39:45.605Z,102458.38
2023-02-14T00:42:16.407Z,102454.78
2023-02-14T00:44:49.311Z,102454.84
2023-02-14T00:47:20.389Z,102454.92
2023-02-14T00:49:49.540Z,102450.09
2023-02-14T00:52:40.229Z,102452.08
2023-02-14T00:55:30.800Z,102449.84
2023-02-14T00:58:04.088Z,102446.39
2023-02-14T01:00:34.739Z,102442.41
2023-02-14T01:03:14.512Z,102439.69
2023-02-14T01:05:45.392Z,102439.17
2023-02-14T01:08:20.038Z,102439.86
2023-02-14T01:10:59.462Z,102439.16
2023-02-14T01:13:30.616Z,102435.64
2023-02-14T01:16:06.442Z,102439.33
2023-02-14T01:18:40.778Z,102441.26
2023-02-14T01:21:30.784Z,102443.34
2023-02-14T01:24:13.562Z,102442.98
2023-02-14T01:26:46.822Z,102445.21
2023-02-14T01:29:17.528Z,102446.94
2023-02-14T01:32:08.384Z,102446.52
2023-02-14T01:34:39.122Z,102445.38
2023-02-14T01:37:18.987Z,102443.98
2023-02-14T01:39:49.686Z,102438.90
2023-02-14T01:42:23.552Z,102433.60
2023-02-14T01:45:19.537Z,102437.66
2023-02-14T01:47:54.390Z,102442.56
2023-02-14T01:50:39.384Z,102443.53
2023-02-14T01:53:17.828Z,102448.02
2023-02-14T01:55:58.304Z,102446.17
2023-02-14T01:58:35.039Z,102450.86
2023-02-14T02:01:26.467Z,102450.81
2023-02-14T02:04:03.940Z,102451.96
2023-02-14T02:06:52.834Z,102450.64
2023-02-14T02:09:32.358Z,102458.73
2023-02-14T02:12:06.239Z,102457.27
2023-02-14T02:14:37.948Z,102460.17
2023-02-14T02:17:27.625Z,102466.66
2023-02-14T02:20:40.304Z,102469.61
2023-02-14T02:23:37.433Z,102470.18
2023-02-14T02:26:34.727Z,102469.53
2023-02-14T02:29:34.620Z,102462.42
2023-02-14T02:32:40.632Z,102458.61
2023-02-14T02:35:36.468Z,102457.88
2023-02-14T02:38:21.299Z,102456.52
2023-02-14T02:41:05.253Z,102457.78
2023-02-14T02:43:54.959Z,102459.17
2023-02-14T02:46:49.787Z,102458.31
2023-02-14T02:50:00.133Z,102452.73
2023-02-14T02:52:58.290Z,102454.10
2023-02-14T02:56:00.931Z,102454.10
2023-02-14T02:58:37.104Z,102453.61
2023-02-14T03:01:13.632Z,102450.04
2023-02-14T03:04:07.203Z,102446.27
2023-02-14T03:06:40.574Z,102448.66
2023-02-14T03:09:41.624Z,102447.02
2023-02-14T03:12:39.131Z,102451.89
2023-02-14T03:15:21.838Z,102452.80
2023-02-14T03:18:25.327Z,102449.08
2023-02-14T03:21:02.025Z,102452.60
2023-02-14T03:23:59.159Z,102450.47
2023-02-14T03:26:54.000Z,102457.46
2023-02-14T03:29:52.471Z,102460.95
2023-02-14T03:32:40.363Z,102457.59
2023-02-14T03:35:25.198Z,102458.79
2023-02-14T03:38:02.015Z,102461.67
2023-02-14T03:40:41.403Z,102463.02
2023-02-14T03:43:19.800Z,102461.19
2023-02-14T03:46:09.878Z,102463.65
2023-02-14T03:48:46.166Z,102462.21
2023-02-14T03:51:18.922Z,102464.09
2023-02-14T03:54:14.862Z,102458.56
2023-02-14T03:56:51.235Z,102461.50
2023-02-14T03:59:32.521Z,102458.88
2023-02-14T04:02:19.900Z,102457.53
2023-02-14T04:04:54.787Z,102456.04
2023-02-14T04:07:28.303Z,102459.50
2023-02-14T04:10:01.960Z,102458.10
2023-02-14T04:12:37.984Z,102460.88
2023-02-14T04:15:29.368Z,102462.59
2023-02-14T04:18:17.642Z,102465.30
2023-02-14T04:21:08.733Z,102463.53
2023-02-14T04:23:39.275Z,102464.55
2023-02-14T04:26:12.925Z,102463.88
2023-02-14T04:28:46.316Z,102469.86
2023-02-14T04:31:29.815Z,102466.23
2023-02-14T04:34:00.503Z,102469.38
2023-02-14T04:36:31.124Z,102470.17
2023-02-14T04:39:01.762Z,102475.29
2023-02-14T04:41:44.961Z,102471.21
2023-02-14T04:44:18.810Z,102474.27
2023-02-14T04:46:53.022Z,102467.35
2023-02-14T04:49:22.342Z,102472.35
2023-02-14T04:51:52.926Z,102475.41
2023-02-14T04:54:44.079Z,102475.17
2023-02-14T04:57:35.253Z,102476.06
2023-02-14T05:00:07.971Z,102470.55
2023-02-14T05:02:39.447Z,102470.21
2023-02-14T05:05:12.407Z,102470.40
2023-02-14T05:08:03.136Z,102469.17
2023-02-14T05:10:44.922Z,102469.67
2023-02-14T05:13:23.416Z,102471.60
2023-02-14T05:16:04.104Z,102468.20
2023-02-14T05:18:54.844Z,102468.23
2023-02-14T05:21:28.794Z,102465.30
2023-02-14T05:24:02.141Z,102465.34
2023-02-14T05:26:33.317Z,102463.77
2023-02-14T05:29:02.474Z,102461.78
2023-02-14T05:31:33.284Z,102464.27
2023-02-14T05:34:13.186Z,102463.69
2023-02-14T05:36:47.068Z,102460.42
2023-02-14T05:39:22.915Z,102458.30
2023-02-14T05:42:13.609Z,102459.13
2023-02-14T05:44:48.831Z,102459.27
2023-02-14T05:47:39.634Z,102460.16
2023-02-14T05:50:13.290Z,102464.80
2023-02-14T05:53:04.782Z,102467.66
2023-02-14T05:55:35.516Z,102471.68
2023-02-14T05:58:16.049Z,102474.02
2023-02-14T06:01:07.021Z,102474.20
2023-02-14T06:03:40.584Z,102474.34
2023-02-14T06:06:21.346Z,102472.65
2023-02-14T06:08:54.954Z,102471.73
2023-02-14T06:11:35.889Z,102469.27
2023-02-14T06:14:09.493Z,102471.45
2023-02-14T06:16:45.225Z,102474.45
2023-02-14T06:19:18.207Z,102478.02
2023-02-14T06:21:58.789Z,102476.33
2023-02-14T06:24:42.138Z,102474.48
2023-02-14T06:27:16.083Z,102474.76
2023-02-14T06:30:12.168Z,102475.23
2023-02-14T06:32:51.596Z,102477.27
2023-02-14T06:35:25.146Z,102479.13
2023-02-14T06:38:00.765Z,102480.48
2023-02-14T06:40:51.399Z,102481.51
2023-02-14T06:43:21.949Z,102485.27
2023-02-14T06:45:55.816Z,102489.23
2023-02-14T06:48:28.916Z,102492.30
2023-02-14T06:51:13.560Z,102495.93
2023-02-14T06:54:04.413Z,102500.27
2023-02-14T06:56:55.168Z,102503.44
2023-02-14T06:59:45.946Z,102506.78
2023-02-14T07:02:18.782Z,102508.27
2023-02-14T07:05:10.167Z,102512.40
2023-02-14T07:07:42.737Z,102512.19
2023-02-14T07:10:34.059Z,102517.20
2023-02-14T07:13:04.717Z,102521.91
2023-02-14T07:15:38.125Z,102520.37
2023-02-14T07:18:10.626Z,102522.67
2023-02-14T07:20:54.995Z,102521.75
2023-02-14T07:23:36.020Z,102518.70
2023-02-14T07:26:11.376Z,102521.02
2023-02-14T07:28:45.241Z,102518.33
2023-02-14T07:31:19.856Z,102512.85
2023-02-14T07:34:01.355Z,102518.77
2023-02-14T07:36:50.609Z,102516.57
2023-02-14T07:39:41.396Z,102517.15
2023-02-14T07:42:22.205Z,102510.98
2023-02-14T07:44:52.825Z,102509.47
2023-02-14T07:47:43.768Z,102505.92
2023-02-14T07:50:23.076Z,102505.32
2023-02-14T07:52:56.037Z,102506.31
2023-02-14T07:55:51.676Z,102497.58
2023-02-14T07:58:25.174Z,102492.89
2023-02-14T08:00:55.891Z,102492.32
2023-02-14T08:03:28.718Z,102497.27
2023-02-14T08:05:59.288Z,102495.09
2023-02-14T08:08:50.601Z,102495.02
2023-02-14T08:11:50.019Z,102498.59
2023-02-14T08:14:32.689Z,102495.54
2023-02-14T08:17:03.484Z,102495.07
2023-02-14T08:19:54.155Z,102486.09
2023-02-14T08:22:47.579Z,102489.92
2023-02-14T08:25:25.362Z,102489.77
2023-02-14T08:28:16.878Z,102491.52
2023-02-14T08:31:06.368Z,102491.23
2023-02-14T08:33:43.530Z,102494.61
2023-02-14T08:36:34.961Z,102495.48
2023-02-14T08:39:25.988Z,102495.45
2023-02-14T08:42:08.123Z,102496.63
2023-02-14T08:44:38.669Z,102498.45
2023-02-14T08:47:09.592Z,102497.90
2023-02-14T08:50:00.426Z,102494.45
2023-02-14T08:52:51.059Z,102491.16
2023-02-14T08:55:42.207Z,102492.77
2023-02-14T08:58:13.154Z,102493.46
2023-02-14T09:00:46.128Z,102492.93
2023-02-14T09:03:27.710Z,102489.17
2023-02-14T09:06:05.779Z,102486.23
2023-02-14T09:08:49.256Z,102486.38
2023-02-14T09:11:30.914Z,102489.30
2023-02-14T09:14:06.567Z,102486.76
2023-02-14T09:16:57.333Z,102485.41
2023-02-14T09:19:31.178Z,102485.20
2023-02-14T09:22:22.626Z,102488.31
2023-02-14T09:25:02.738Z,102486.36
2023-02-14T09:27:53.589Z,102484.36
2023-02-14T09:30:27.583Z,102484.14
2023-02-14T09:33:18.570Z,102482.16
2023-02-14T09:36:13.583Z,102476.65
2023-02-14T09:38:49.117Z,102474.63
2023-02-14T09:41:48.208Z,102474.66
2023-02-14T09:44:30.641Z,102473.31
2023-02-14T09:47:13.171Z,102476.23
2023-02-14T09:49:46.847Z,102467.50
2023-02-14T09:52:21.100Z,102466.05
2023-02-14T09:54:57.724Z,102467.18
2023-02-14T09:57:38.711Z,102468.14
2023-02-14T10:00:31.195Z,102468.77
2023-02-14T10:03:13.628Z,102466.27
2023-02-14T10:06:04.264Z,102469.55
2023-02-14T10:09:02.054Z,102467.52
2023-02-14T10:11:33.243Z,102465.33
2023-02-14T10:14:16.374Z,102461.90
2023-02-14T10:16:52.000Z,102466.37
2023-02-14T10:19:32.848Z,102466.87
2023-02-14T10:22:10.939Z,102465.23
2023-02-14T10:24:47.338Z,102464.44
2023-02-14T10:27:34.455Z,102465.44
2023-02-14T10:30:26.176Z,102464.33
2023-02-14T10:33:06.413Z,102460.11
2023-02-14T10:35:45.863Z,102459.59
2023-02-14T10:38:29.142Z,102457.91
2023-02-14T10:41:15.185Z,102455.34
2023-02-14T10:43:57.141Z,102455.42
2023-02-14T10:46:40.856Z,102452.52
2023-02-14T10:49:26.518Z,102448.90
2023-02-14T10:52:03.010Z,102444.77
2023-02-14T10:54:39.842Z,102441.11
2023-02-14T10:57:21.792Z,102443.20
2023-02-14T10:59:58.711Z,102436.52
2023-02-14T11:02:35.970Z,102431.98
2023-02-14T11:05:18.774Z,102425.39
2023-02-14T11:07:52.732Z,102425.23
2023-02-14T11:10:29.703Z,102428.56
2023-02-14T11:13:02.926Z,102427.68
2023-02-14T11:15:36.952Z,102424.87
2023-02-14T11:18:23.036Z,102432.17
2023-02-14T11:21:11.304Z,102430.29
2023-02-14T11:23:45.097Z,102421.10
2023-02-14T11:26:22.563Z,102420.23
2023-02-14T11:28:58.259Z,102413.91
2023-02-14T11:31:34.315Z,102411.94
2023-02-14T11:34:07.948Z,102405.17
2023-02-14T11:36:48.507Z,102402.92
2023-02-14T11:39:29.982Z,102400.20
2023-02-14T11:42:05.742Z,102393.79
2023-02-14T11:44:43.997Z,102390.53
2023-02-14T11:47:27.246Z,102388.86
2023-02-14T11:50:01.115Z,102391.00
2023-02-14T11:52:50.826Z,102388.06
2023-02-14T11:55:29.247Z,102383.33
2023-02-14T11:58:01.664Z,102382.28
2023-02-14T12:00:42.477Z,102372.92
2023-02-14T12:03:23.699Z,102370.88
2023-02-14T12:06:24.118Z,102368.11
2023-02-14T12:09:13.580Z,102364.67
2023-02-14T12:11:56.783Z,102361.90
2023-02-14T12:14:32.100Z,102360.14
2023-02-14T12:17:09.993Z,102359.98
2023-02-14T12:19:50.141Z,102353.22
2023-02-14T12:22:23.559Z,102351.13
2023-02-14T12:25:00.188Z,102345.09
2023-02-14T12:27:35.615Z,102338.17
2023-02-14T12:30:19.988Z,102329.45
2023-02-14T12:32:53.459Z,102325.13
2023-02-14T12:35:45.488Z,102321.70
2023-02-14T12:38:24.380Z,102320.17
2023-02-14T12:41:04.745Z,102318.91
2023-02-14T12:43:50.789Z,102317.89
2023-02-14T12:47:01.194Z,102312.00
2023-02-14T12:49:55.002Z,102308.88
2023-02-14T12:53:01.730Z,102315.69
2023-02-14T12:55:44.117Z,102311.52
2023-02-14T12:58:30.044Z,102312.95
2023-02-14T13:01:16.326Z,102307.73
2023-02-14T13:04:16.842Z,102310.85
2023-02-14T13:06:52.465Z,102305.75
2023-02-14T13:09:36.073Z,102301.18
2023-02-14T13:12:26.506Z,102297.81
2023-02-14T13:15:14.086Z,102293.97
2023-02-14T13:17:49.361Z,102296.03
2023-02-14T13:20:35.439Z,102290.08
2023-02-14T13:23:12.889Z,102287.09
2023-02-14T13:25:50.062Z,102284.83
2023-02-14T13:28:44.298Z,102285.01
2023-02-14T13:31:19.257Z,102284.30
2023-02-14T13:34:02.110Z,102278.17
2023-02-14T13:36:34.309Z,102277.11
2023-02-14T13:39:06.929Z,102278.02
2023-02-14T13:41:42.033Z,102270.35
2023-02-14T13:44:45.395Z,102269.65
2023-02-14T13:47:24.355Z,102268.56
2023-02-14T13:50:00.839Z,102269.75
2023-02-14T13:52:49.532Z,102268.10
2023-02-14T13:55:22.647Z,102268.36
2023-02-14T13:58:05.675Z,102274.95
2023-02-14T14:00:49.834Z,102271.94
2023-02-14T14:03:57.445Z,102269.31
2023-02-14T14:07:18.612Z,102267.19
2023-02-14T14:10:12.962Z,102268.58
2023-02-14T14:12:52.208Z,102263.88
2023-02-14T14:15:31.653Z,102265.97
2023-02-14T14:18:43.816Z,102261.97
2023-02-14T14:21:35.804Z,102260.26
2023-02-14T14:24:25.165Z,102252.95
2023-02-14T14:27:18.495Z,102247.95
2023-02-14T14:30:20.634Z,102248.48
2023-02-14T14:32:53.835Z,102244.65
2023-02-14T14:35:26.562Z,102242.55
2023-02-14T14:38:14.004Z,102239.08
2023-02-14T14:40:49.528Z,102238.55
2023-02-14T14:43:30.154Z,102239.42
2023-02-14T14:46:03.437Z,102234.19
2023-02-14T14:48:46.941Z,102229.81
2023-02-14T14:51:29.410Z,102227.21
2023-02-14T14:54:02.324Z,102227.57
2023-02-14T14:56:39.935Z,102230.67
2023-02-14T14:59:29.310Z,102227.35
2023-02-14T15:02:00.400Z,102229.27
2023-02-14T15:04:41.159Z,102222.30
2023-02-14T15:07:25.975Z,102223.00
2023-02-14T15:10:04.464Z,102217.06
2023-02-14T15:13:05.678Z,102217.03
2023-02-14T15:15:49.251Z,102216.45
2023-02-14T15:18:20.604Z,102212.23
2023-02-14T15:20:51.468Z,102207.35
2023-02-14T15:23:25.456Z,102202.28
2023-02-14T15:25:56.034Z,102201.73
2023-02-14T15:28:55.075Z,102202.89
2023-02-14T15:31:32.785Z,102209.13
2023-02-14T15:34:13.641Z,102207.02
2023-02-14T15:36:52.042Z,102203.52
2023-02-14T15:39:25.237Z,102210.45
2023-02-14T15:42:00.932Z,102210.73
2023-02-14T15:44:34.365Z,102207.73
2023-02-14T15:47:08.432Z,102205.96
2023-02-14T15:49:43.293Z,102203.48
2023-02-14T15:52:27.691Z,102199.96
2023-02-14T15:55:16.064Z,102201.52
2023-02-14T15:57:54.756Z,102201.14
2023-02-14T16:00:27.866Z,102203.90
2023-02-14T16:03:20.513Z,102203.34
2023-02-14T16:06:30.462Z,102204.52
2023-02-14T16:09:16.750Z,102202.56
2023-02-14T16:12:30.978Z,102203.41
2023-02-14T16:15:19.166Z,102203.89
2023-02-14T16:17:53.732Z,102199.17
2023-02-14T16:20:47.005Z,102201.21
2023-02-14T16:23:27.302Z,102205.55
2023-02-14T16:26:00.924Z,102199.06
2023-02-14T16:28:51.630Z,102203.92
2023-02-14T16:31:22.665Z,102201.95
2023-02-14T16:34:05.643Z,102199.96
2023-02-14T16:36:47.223Z,102201.19
2023-02-14T16:39:25.320Z,102199.04
2023-02-14T16:42:14.659Z,102193.62
2023-02-14T16:45:06.198Z,102196.19
2023-02-14T16:47:37.650Z,102196.36
2023-02-14T16:50:28.151Z,102196.66
2023-02-14T16:52:59.291Z,102200.65
2023-02-14T16:55:32.817Z,102202.38
2023-02-14T16:58:06.989Z,102201.14
2023-02-14T17:00:39.478Z,102206.66
2023-02-14T17:03:12.002Z,102203.35
2023-02-14T17:06:02.993Z,102209.79
2023-02-14T17:08:33.877Z,102208.73
2023-02-14T17:11:08.320Z,102212.20
2023-02-14T17:13:48.242Z,102213.08
2023-02-14T17:16:22.093Z,102214.29
2023-02-14T17:18:54.547Z,102217.06
2023-02-14T17:21:25.980Z,102220.35
2023-02-14T17:23:56.770Z,102223.80
2023-02-14T17:26:27.566Z,102229.35
2023-02-14T17:29:00.758Z,102230.52
2023-02-14T17:31:40.928Z,102227.89
2023-02-14T17:34:14.537Z,102227.02
2023-02-14T17:36:48.200Z,102233.61
2023-02-14T17:39:21.591Z,102234.47
2023-02-14T17:41:56.760Z,102232.16
2023-02-14T17:44:38.829Z,102223.94
2023-02-14T17:47:19.955Z,102224.09
2023-02-14T17:49:57.262Z,102223.56
2023-02-14T17:52:48.267Z,102225.29
2023-02-14T17:55:22.965Z,102223.71
2023-02-14T17:58:13.814Z,102224.55
2023-02-14T18:00:55.768Z,102221.22
2023-02-14T18:03:35.522Z,102222.55
2023-02-14T18:06:08.064Z,102221.45
2023-02-14T18:08:53.067Z,102217.39
2023-02-14T18:11:43.257Z,102215.59
2023-02-14T18:14:22.113Z,102216.94
2023-02-14T18:17:20.545Z,102216.22
2023-02-14T18:20:19.378Z,102213.95
2023-02-14T18:23:09.868Z,102212.16
2023-02-14T18:26:05.786Z,102210.23
2023-02-14T18:28:43.119Z,102206.19
2023-02-14T18:31:41.734Z,102200.58
2023-02-14T18:34:20.494Z,102199.63
2023-02-14T18:36:56.949Z,102198.41
2023-02-14T18:39:27.966Z,102190.59
2023-02-14T18:42:00.132Z,102189.73
2023-02-14T18:44:31.130Z,102189.30
2023-02-14T18:47:07.464Z,102184.19
2023-02-14T18:49:38.211Z,102182.27
2023-02-14T18:52:09.109Z,102181.92
2023-02-14T18:54:39.916Z,102179.84
2023-02-14T18:57:13.856Z,102175.67
2023-02-14T18:59:45.108Z,102175.30
2023-02-14T19:02:19.014Z,102167.84
2023-02-14T19:04:50.612Z,102166.27
2023-02-14T19:07:21.290Z,102168.02
2023-02-14T19:09:52.679Z,102162.13
2023-02-14T19:12:24.304Z,102161.59
2023-02-14T19:14:56.863Z,102160.36
2023-02-14T19:17:27.705Z,102160.86
2023-02-14T19:19:58.352Z,102167.25
2023-02-14T19:22:31.343Z,102169.81
2023-02-14T19:25:01.935Z,102170.96
2023-02-14T19:27:32.974Z,102168.80
2023-02-14T19:30:05.089Z,102172.59
2023-02-14T19:32:35.824Z,102174.31
2023-02-14T19:35:07.232Z,102170.30
2023-02-14T19:37:38.067Z,102167.52
2023-02-14T19:40:10.840Z,102161.95
2023-02-14T19:42:43.952Z,102155.52
2023-02-14T19:45:17.116Z,102155.13
2023-02-14T19:47:47.789Z,102153.52
2023-02-14T19:50:21.918Z,102152.94
2023-02-14T19:52:53.012Z,102150.67
2023-02-14T19:55:25.947Z,102148.05
2023-02-14T19:57:59.949Z,102148.69
2023-02-14T20:00:33.600Z,102151.45
2023-02-14T20:03:07.209Z,102149.19
2023-02-14T20:05:41.530Z,102145.36
2023-02-14T20:08:12.304Z,102142.23
2023-02-14T20:10:42.974Z,102139.95
2023-02-14T20:13:16.826Z,102136.41
2023-02-14T20:15:50.795Z,102137.46
2023-02-14T20:18:26.436Z,102135.14
2023-02-14T20:21:07.579Z,102131.33
2023-02-14T20:23:39.109Z,102133.58
2023-02-14T20:26:14.537Z,102129.90
2023-02-14T20:28:45.305Z,102126.21
2023-02-14T20:31:20.186Z,102123.27
2023-02-14T20:33:52.845Z,102120.83
2023-02-14T20:36:23.540Z,102118.57
2023-02-14T20:39:07.098Z,102116.33
2023-02-14T20:41:38.015Z,102114.78
2023-02-14T20:44:11.353Z,102110.09
2023-02-14T20:46:45.191Z,102111.13
2023-02-14T20:49:17.037Z,102109.73
2023-02-14T20:51:49.626Z,102106.23
2023-02-14T20:54:21.439Z,102102.67
2023-02-14T20:56:55.612Z,102101.34
2023-02-14T20:59:27.293Z,102102.11
2023-02-14T21:02:10.617Z,102101.84
2023-02-14T21:04:51.117Z,102101.45
2023-02-14T21:07:24.444Z,102100.21
2023-02-14T21:09:57.361Z,102101.19
2023-02-14T21:12:48.781Z,102101.11
2023-02-14T21:15:19.532Z,102098.13
2023-02-14T21:17:50.370Z,102091.20
2023-02-14T21:20:23.544Z,102087.38
2023-02-14T21:22:56.929Z,102084.61
2023-02-14T21:25:27.786Z,102085.48
2023-02-14T21:27:58.585Z,102083.23
2023-02-14T21:30:32.443Z,102085.17
2023-02-14T21:33:03.900Z,102086.23
2023-02-14T21:35:36.330Z,102081.58
2023-02-14T21:38:06.994Z,102081.58
2023-02-14T21:40:38.606Z,102077.60
2023-02-14T21:43:07.776Z,102075.52
2023-02-14T21:45:57.811Z,102077.78
2023-02-14T21:48:45.868Z,102079.20
2023-02-14T21:51:16.554Z,102076.61
2023-02-14T21:53:48.139Z,102075.59
2023-02-14T21:56:20.929Z,102077.17
2023-02-14T21:58:53.076Z,102073.91
2023-02-14T22:01:26.621Z,102072.35
2023-02-14T22:03:58.714Z,102071.81
2023-02-14T22:06:30.201Z,102072.15
2023-02-14T22:09:00.707Z,102067.81
2023-02-14T22:11:32.001Z,102069.73
2023-02-14T22:14:03.227Z,102067.98
2023-02-14T22:16:36.595Z,102064.67
2023-02-14T22:19:08.733Z,102062.77
2023-02-14T22:21:39.190Z,102061.15
2023-02-14T22:24:10.163Z,102059.87
2023-02-14T22:26:43.843Z,102058.44
2023-02-14T22:29:16.881Z,102058.98
2023-02-14T22:31:47.559Z,102055.37
2023-02-14T22:34:19.449Z,102055.56
2023-02-14T22:36:51.185Z,102057.04
2023-02-14T22:39:24.185Z,102056.81
2023-02-14T22:41:54.806Z,102060.23
2023-02-14T22:44:28.450Z,102059.50
2023-02-14T22:46:59.185Z,102054.59
2023-02-14T22:49:32.756Z,102051.38
2023-02-14T22:52:05.706Z,102050.83
2023-02-14T22:54:36.187Z,102051.81
2023-02-14T22:57:09.158Z,102047.97
2023-02-14T22:59:42.126Z,102044.60
2023-02-14T23:02:14.618Z,102046.48
2023-02-14T23:04:45.188Z,102042.08
2023-02-14T23:07:15.625Z,102041.36
2023-02-14T23:09:58.727Z,102041.70
2023-02-14T23:12:47.371Z,102038.08
2023-02-14T23:15:55.875Z,102034.43
2023-02-14T23:18:44.370Z,102040.52
2023-02-14T23:21:34.080Z,102036.76
2023-02-14T23:24:07.673Z,102038.70
2023-02-14T23:26:38.382Z,102036.48
2023-02-14T23:29:08.900Z,102039.81
2023-02-14T23:31:39.598Z,102042.95
2023-02-14T23:34:10.341Z,102041.92
2023-02-14T23:36:40.959Z,102041.61
2023-02-14T23:39:11.745Z,102040.73
2023-02-14T23:41:48.263Z,102045.05
2023-02-14T23:44:20.737Z,102046.95
2023-02-14T23:46:52.902Z,102045.20
2023-02-14T23:49:24.903Z,102045.00
2023-02-14T23:51:57.791Z,102041.67
2023-02-14T23:54:28.934Z,102041.68
2023-02-14T23:56:59.546Z,102039.45
2023-02-14T23:59:33.053Z,102041.72
